DW4885 Weather Reports


Display with metric or nautical units.
time (UTC)temp
F
wind
direction
speed
MPH
gust
MPH
rain 1hr
in
rain 24hr
in
rain mn
in
humidity
%
barometer
mb
20210918145010 71 205 5.0 7.0 0.00 0.00 0.00 84 1015.9
20210918143509 69 236 3.0 5.0 0.00 0.00 0.00 87 1016.1
20210918143010 69 263 0.0 3.0 0.00 0.00 0.00 88 1016.1
20210918142509 69 255 2.0 6.0 0.00 0.00 0.00 87 1016.1
20210918141010 69 252 3.0 8.0 0.00 0.00 0.00 88 1016.0
20210918140509 68 268 2.0 5.0 0.00 0.00 0.00 89 1015.9
20210918140009 67 189 2.0 6.0 0.00 0.00 0.00 90 1015.9
20210918135009 67 251 2.0 5.0 0.00 0.00 0.00 90 1016.2
20210918134510 67 261 3.0 7.0 0.00 0.00 0.00 90 1016.2
20210918133510 66 234 1.0 3.0 0.00 0.00 0.00 91 1016.2
20210918133010 66 252 2.0 6.0 0.00 0.00 0.00 92 1016.3
20210918132509 66 215 3.0 5.0 0.00 0.00 0.00 92 1016.4
20210918132010 66 215 2.0 6.0 0.00 0.00 0.00 92 1016.5
20210918131509 66 244 2.0 6.0 0.00 0.00 0.00 92 1016.4
20210918131009 65 257 2.0 5.0 0.00 0.00 0.00 93 1016.4
20210918130510 65 218 2.0 5.0 0.00 0.00 0.00 93 1016.4
20210918130009 65 242 3.0 8.0 0.00 0.00 0.00 93 1016.3
20210918125510 65 251 3.0 6.0 0.00 0.00 0.00 93 1016.3
20210918125010 65 245 3.0 5.0 0.00 0.00 0.00 94 1016.2
20210918123510 64 260 3.0 6.0 0.00 0.00 0.00 96 1016.0
20210918123009 64 258 2.0 3.0 0.00 0.00 0.00 96 1016.2
20210918122009 63 258 1.0 6.0 0.00 0.00 0.00 97 1016.3
20210918121510 63 255 3.0 5.0 0.00 0.00 0.00 97 1016.3
20210918121012 63 259 2.0 5.0 0.00 0.00 0.00 97 1016.3
20210918120510 63 248 1.0 5.0 0.00 0.00 0.00 97 1016.3
20210918115510 62 247 1.0 2.0 0.00 0.00 0.00 98 1016.4
20210918114009 62 250 1.0 3.0 0.00 0.00 0.00 98 1016.3
20210918113510 62 267 1.0 3.0 0.00 0.00 0.00 98 1016.4
20210918112009 61 233 0.0 2.0 0.00 0.00 0.00 98 1016.3
20210918111510 61 236 1.0 3.0 0.00 0.00 0.00 98 1016.3
20210918110010 60 214 0.0 0.0 0.00 0.00 0.00 97 1016.4
20210918105510 60 214 0.0 0.0 0.00 0.00 0.00 97 1016.3
20210918104510 61 214 0.0 0.0 0.00 0.00 0.00 97 1016.2
20210918104010 61 214 0.0 1.0 0.00 0.00 0.00 97 1016.0
20210918103010 61 261 0.0 0.0 0.00 0.00 0.00 97 1015.9
20210918102510 61 261 0.0 1.0 0.00 0.00 0.00 97 1015.9
20210918102009 61 262 0.0 1.0 0.00 0.00 0.00 97 1015.8
20210918101010 61 288 0.0 1.0 0.00 0.00 0.00 97 1016.0
20210918100010 62 259 1.0 2.0 0.00 0.00 0.00 97 1016.4
20210918095010 62 248 1.0 3.0 0.00 0.00 0.00 97 1016.6
20210918094510 62 266 0.0 2.0 0.00 0.00 0.00 96 1016.6
20210918094010 62 269 1.0 3.0 0.00 0.00 0.00 97 1016.7
20210918093513 62 262 2.0 3.0 0.00 0.00 0.00 97 1016.6
20210918093010 62 256 0.0 2.0 0.00 0.00 0.00 97 1016.6
20210918092510 62 249 1.0 3.0 0.00 0.00 0.00 96 1016.6
20210918092011 62 222 0.0 1.0 0.00 0.00 0.00 96 1016.5
20210918091010 62 269 2.0 6.0 0.00 0.00 0.00 97 1016.5
20210918090510 62 253 0.0 1.0 0.00 0.00 0.00 96 1016.6
20210918090010 62 253 0.0 1.0 0.00 0.00 0.00 96 1016.6
20210918085010 62 261 0.0 1.0 0.00 0.00 0.00 96 1016.5
20210918084510 62 254 0.0 2.0 0.00 0.00 0.00 96 1016.6
20210918084010 62 257 1.0 2.0 0.00 0.00 0.00 96 1016.5
20210918083510 62 245 0.0 2.0 0.00 0.00 0.00 96 1016.4
20210918083010 62 244 0.0 3.0 0.00 0.00 0.00 96 1016.4
20210918082010 62 240 1.0 3.0 0.00 0.00 0.00 96 1016.5
20210918081510 62 263 1.0 3.0 0.00 0.00 0.00 96 1016.5
20210918080010 62 267 2.0 3.0 0.00 0.00 0.00 95 1016.5
20210918075510 62 274 1.0 3.0 0.00 0.00 0.00 95 1016.5
20210918075010 62 256 1.0 5.0 0.00 0.00 0.00 95 1016.6
20210918074510 62 255 1.0 3.0 0.00 0.00 0.00 96 1016.7
20210918074010 62 267 1.0 6.0 0.00 0.00 0.00 96 1016.6
20210918073010 62 256 1.0 2.0 0.00 0.00 0.00 95 1016.6
20210918072510 62 271 0.0 3.0 0.00 0.00 0.00 95 1016.6
20210918072011 62 265 0.0 3.0 0.00 0.00 0.00 95 1016.6
20210918071510 62 284 1.0 3.0 0.00 0.00 0.00 95 1016.6
20210918071011 62 294 1.0 3.0 0.00 0.00 0.00 95 1016.7
20210918065511 62 278 1.0 3.0 0.00 0.00 0.00 95 1016.9
20210918065010 63 271 2.0 3.0 0.00 0.00 0.00 95 1016.9
20210918064511 63 261 1.0 3.0 0.00 0.00 0.00 95 1017.1
20210918064010 63 260 1.0 3.0 0.00 0.00 0.00 95 1017.2
20210918063511 63 253 3.0 5.0 0.00 0.00 0.00 95 1017.3
20210918063010 63 247 2.0 3.0 0.00 0.00 0.00 95 1017.3
20210918062510 63 256 1.0 3.0 0.00 0.00 0.00 95 1017.3
20210918062010 63 250 0.0 2.0 0.00 0.00 0.00 95 1017.3
20210918061511 63 253 1.0 5.0 0.00 0.00 0.00 95 1017.3
20210918061010 63 215 2.0 3.0 0.00 0.00 0.00 95 1017.4
20210918060511 63 251 0.0 2.0 0.00 0.00 0.00 95 1017.5
20210918060010 63 264 1.0 2.0 0.00 0.00 0.00 95 1017.6
20210918055512 63 245 1.0 3.0 0.00 0.00 0.00 95 1017.7
20210918055011 63 274 1.0 3.0 0.00 0.00 0.00 95 1017.7
20210918054510 63 254 1.0 3.0 0.00 0.00 0.00 95 1017.7
20210918054011 63 273 1.0 3.0 0.00 0.00 0.00 95 1017.7
20210918053510 63 277 1.0 3.0 0.00 0.00 0.00 95 1017.7
20210918052010 63 264 3.0 6.0 0.00 0.00 0.00 95 1017.8
20210918051511 63 253 1.0 5.0 0.00 0.00 0.00 95 1017.9
20210918051010 63 256 2.0 5.0 0.00 0.00 0.00 95 1017.9
20210918050511 63 271 3.0 8.0 0.00 0.00 0.00 95 1018.0
20210918050010 63 259 3.0 7.0 0.00 0.00 0.00 95 1017.9
20210918045511 63 213 2.0 5.0 0.00 0.00 0.00 95 1017.9
20210918045011 63 250 2.0 7.0 0.00 0.00 0.00 95 1017.9
20210918044511 63 267 3.0 6.0 0.00 0.00 0.00 95 1017.9
20210918044011 63 235 3.0 7.0 0.00 0.00 0.00 95 1017.9
20210918043010 63 260 3.0 10.0 0.00 0.00 0.00 96 1017.8
20210918042511 63 258 3.0 6.0 0.00 0.00 0.00 96 1017.6
20210918041508 62 264 3.0 9.0 0.00 0.00 0.00 96 1017.8
20210918041009 62 262 3.0 8.0 0.00 0.00 0.00 96 1017.9
20210918035509 62 255 3.0 9.0 0.00 0.00 0.00 95 1018.0
20210918035008 62 252 4.0 10.0 0.00 0.00 0.00 95 1018.1
20210918034508 62 235 3.0 8.0 0.00 0.00 0.00 95 1018.2
20210918033508 63 232 3.0 10.0 0.00 0.00 0.00 95 1018.4
20210918032509 63 230 4.0 12.0 0.00 0.00 0.00 95 1018.4
20210918032008 63 259 5.0 12.0 0.00 0.00 0.00 95 1018.4
20210918031508 63 252 2.0 8.0 0.00 0.00 0.00 95 1018.4
20210918031008 63 261 5.0 10.0 0.00 0.00 0.00 94 1018.4
20210918030508 63 276 4.0 8.0 0.00 0.00 0.00 94 1018.4
20210918025008 63 197 5.0 14.0 0.00 0.00 0.00 94 1018.6
20210918024009 63 264 3.0 7.0 0.00 0.00 0.00 94 1018.7
20210918022009 63 245 3.0 8.0 0.00 0.00 0.00 94 1019.0
20210918021508 63 256 4.0 8.0 0.00 0.00 0.00 94 1019.0
20210918021008 63 255 3.0 8.0 0.00 0.00 0.00 94 1019.1
20210918020508 63 253 3.0 8.0 0.00 0.00 0.00 94 1019.2
20210918020009 63 250 4.0 9.0 0.00 0.00 0.00 94 1019.3
20210918015509 63 265 2.0 9.0 0.00 0.00 0.00 93 1019.3
20210918015008 63 260 2.0 9.0 0.00 0.00 0.00 93 1019.4
20210918014508 63 258 4.0 7.0 0.00 0.00 0.00 93 1019.4
20210918014009 63 259 2.0 5.0 0.00 0.00 0.00 93 1019.5
20210918013508 63 259 2.0 3.0 0.00 0.00 0.00 93 1019.5
20210918013008 63 248 2.0 3.0 0.00 0.00 0.00 93 1019.6
20210918012509 63 257 2.0 8.0 0.00 0.00 0.00 93 1019.6
20210918011508 64 236 2.0 10.0 0.00 0.00 0.00 92 1019.8
20210918011008 64 261 2.0 7.0 0.00 0.00 0.00 92 1019.9
20210918010008 64 258 3.0 6.0 0.00 0.00 0.00 92 1020.0
20210918005009 64 247 1.0 7.0 0.00 0.00 0.00 91 1020.2
20210918004508 64 232 4.0 7.0 0.00 0.00 0.00 92 1020.3
20210918003009 64 227 2.0 3.0 0.00 0.00 0.00 92 1020.3
20210918001509 64 273 2.0 6.0 0.00 0.00 0.00 92 1020.4
20210918000508 64 263 0.0 2.0 0.00 0.00 0.00 92 1020.3
20210918000009 64 275 0.0 3.0 0.00 0.00 0.00 92 1020.3
20210917234509 64 257 0.0 1.0 0.00 0.00 0.00 91 1020.3
20210917233508 64 280 1.0 3.0 0.00 0.00 0.00 91 1020.4
20210917233008 64 260 1.0 3.0 0.00 0.00 0.00 91 1020.4
20210917232509 64 272 1.0 3.0 0.00 0.00 0.00 90 1020.4
20210917232009 64 257 0.0 2.0 0.00 0.00 0.00 90 1020.5
20210917231508 65 141 0.0 2.0 0.00 0.00 0.00 89 1020.5
20210917231009 65 236 1.0 2.0 0.00 0.00 0.00 89 1020.5
20210917230009 65 266 1.0 3.0 0.00 0.00 0.00 89 1020.6
20210917225008 65 294 0.0 1.0 0.00 0.00 0.00 88 1020.7
20210917223509 66 316 1.0 3.0 0.00 0.00 0.00 87 1020.8
20210917223008 66 232 0.0 2.0 0.00 0.00 0.00 87 1020.9
20210917222509 66 228 0.0 2.0 0.00 0.00 0.00 87 1021.0
20210917222009 66 268 1.0 3.0 0.00 0.00 0.00 86 1021.0
20210917221009 66 261 2.0 6.0 0.00 0.00 0.00 85 1021.1
20210917220511 67 235 2.0 6.0 0.00 0.00 0.00 85 1021.1
20210917220009 67 250 3.0 5.0 0.00 0.00 0.00 84 1021.0
20210917215013 68 276 0.0 6.0 0.00 0.00 0.00 82 1020.9
20210917214509 68 259 5.0 9.0 0.00 0.00 0.00 81 1021.0
20210917214009 69 204 2.0 6.0 0.00 0.00 0.00 81 1021.0
20210917213009 69 270 2.0 8.0 0.00 0.00 0.00 81 1021.0
20210917212009 69 267 4.0 8.0 0.00 0.00 0.00 81 1021.1
20210917211509 68 260 2.0 6.0 0.00 0.00 0.00 81 1021.2
20210917210509 69 257 3.0 9.0 0.00 0.00 0.00 80 1021.4
20210917204509 70 255 3.0 12.0 0.00 0.00 0.00 78 1021.5
20210917203509 71 267 6.0 14.0 0.00 0.00 0.00 76 1021.5
20210917203009 70 270 6.0 14.0 0.00 0.00 0.00 77 1021.5
20210917202510 70 247 5.0 10.0 0.00 0.00 0.00 77 1021.7
20210917201509 71 274 5.0 15.0 0.00 0.00 0.00 77 1021.6
20210917201009 71 254 5.0 15.0 0.00 0.00 0.00 77 1021.5
20210917200509 70 233 6.0 13.0 0.00 0.00 0.00 78 1021.7
20210917200009 69 246 5.0 9.0 0.00 0.00 0.00 79 1021.7
20210917195510 69 248 5.0 12.0 0.00 0.00 0.00 78 1021.8
20210917194009 69 251 6.0 13.0 0.00 0.00 0.00 79 1022.0
20210917193509 68 253 6.0 13.0 0.00 0.00 0.00 78 1022.1
20210917193009 69 258 6.0 9.0 0.00 0.00 0.00 77 1022.2
20210917191509 69 252 5.0 12.0 0.00 0.00 0.00 78 1022.3
20210917190509 68 253 5.0 12.0 0.00 0.00 0.00 79 1022.5
20210917190009 69 234 3.0 12.0 0.00 0.00 0.00 78 1022.6
20210917185009 69 252 7.0 12.0 0.00 0.00 0.00 77 1022.7
20210917184509 69 262 5.0 10.0 0.00 0.00 0.00 77 1022.8
20210917183509 69 242 6.0 13.0 0.00 0.00 0.00 77 1022.9
20210917183009 69 249 6.0 12.0 0.00 0.00 0.00 77 1023.0
20210917182510 69 260 3.0 12.0 0.00 0.00 0.00 77 1023.0
20210917182009 69 262 5.0 16.0 0.00 0.00 0.00 77 1023.1
20210917181010 70 251 5.0 12.0 0.00 0.00 0.00 76 1023.1
20210917180509 70 236 4.0 12.0 0.00 0.00 0.00 76 1023.2
20210917180009 71 246 6.0 12.0 0.00 0.00 0.00 76 1023.2
20210917174010 71 251 6.0 12.0 0.00 0.00 0.00 75 1023.3
20210917173509 71 263 6.0 13.0 0.00 0.00 0.00 74 1023.4
20210917173009 71 238 7.0 16.0 0.00 0.00 0.00 74 1023.5
20210917171010 71 238 6.0 15.0 0.00 0.00 0.00 75 1023.6
20210917170009 71 280 3.0 8.0 0.00 0.00 0.00 77 1023.8
20210917165510 70 240 3.0 10.0 0.00 0.00 0.00 79 1023.8
20210917164509 69 268 5.0 10.0 0.00 0.00 0.00 78 1023.8
20210917163509 68 287 2.0 8.0 0.00 0.00 0.00 79 1024.0
20210917162009 68 245 5.0 12.0 0.00 0.00 0.00 79 1023.9
20210917161010 68 236 6.0 12.0 0.00 0.00 0.00 80 1023.8
20210917160509 68 230 5.0 12.0 0.00 0.00 0.00 79 1023.8
20210917155009 68 239 7.0 14.0 0.00 0.00 0.00 77 1023.9
20210917154510 68 246 7.0 13.0 0.00 0.00 0.00 79 1023.9
20210917154010 68 258 7.0 15.0 0.00 0.00 0.00 78 1023.8
20210917153509 67 261 8.0 17.0 0.00 0.00 0.00 79 1023.9
20210917153009 67 250 7.0 16.0 0.00 0.00 0.00 79 1023.9
20210917152010 67 236 7.0 12.0 0.00 0.00 0.00 78 1024.0
20210917151010 67 256 7.0 15.0 0.00 0.00 0.00 79 1024.0
20210917150510 67 217 4.0 12.0 0.00 0.00 0.00 79 1023.9
20210917145510 67 284 6.0 12.0 0.00 0.00 0.00 78 1024.0